Time;durP1;ratioP1;P1;durP2;ratioP2;P2;SDS_P1;SDS_P2;PMS_P1;PMS_P2;Temp;Humidity;BMP_temperature;BMP_pressure;BME280_temperature;BME280_humidity;BME280_pressure;Samples;Min_cycle;Max_cycle;Signal;HPM_P1;HPM_P2
2024/02/14 00:00:29;;;;;;;3.05;1.23;;;10.20;86.30;;;;;;5031533;28;20041;-68
2024/02/14 00:02:54;;;;;;;1.52;1.20;;;10.20;86.30;;;;;;5038581;28;20172;-67
2024/02/14 00:05:20;;;;;;;1.55;0.93;;;10.20;86.30;;;;;;5031524;28;20022;-67
2024/02/14 00:07:46;;;;;;;1.10;0.70;;;10.20;86.50;;;;;;5031249;28;20116;-67
2024/02/14 00:10:12;;;;;;;3.13;0.93;;;10.20;86.50;;;;;;5033843;28;20037;-67
2024/02/14 00:12:37;;;;;;;2.92;1.60;;;10.10;86.70;;;;;;5036170;28;20037;-68
2024/02/14 00:15:07;;;;;;;1.00;0.90;;;10.10;87.10;;;;;;5034188;28;20033;-68
2024/02/14 00:17:36;;;;;;;2.67;1.13;;;10.10;87.10;;;;;;5033802;28;20061;-68
2024/02/14 00:20:03;;;;;;;0.93;0.90;;;10.10;87.60;;;;;;5032816;28;20032;-68
2024/02/14 00:22:30;;;;;;;1.40;0.90;;;10.20;87.60;;;;;;5034094;28;20112;-68
2024/02/14 00:24:56;;;;;;;1.58;0.85;;;10.10;87.80;;;;;;5033400;28;20021;-68
2024/02/14 00:27:22;;;;;;;1.45;0.90;;;10.10;87.70;;;;;;5029679;28;20115;-68
2024/02/14 00:29:48;;;;;;;1.27;1.08;;;10.20;87.70;;;;;;5037587;28;20060;-68
2024/02/14 00:32:14;;;;;;;1.20;1.10;;;10.20;87.80;;;;;;5037962;28;20480;-68
2024/02/14 00:34:40;;;;;;;1.63;1.15;;;10.20;87.90;;;;;;5042519;28;20039;-68
2024/02/14 00:37:06;;;;;;;1.20;1.10;;;10.20;88.30;;;;;;5030333;28;20033;-68
2024/02/14 00:39:32;;;;;;;1.73;1.05;;;10.20;88.20;;;;;;5030561;28;20052;-68
2024/02/14 00:41:57;;;;;;;0.85;0.75;;;10.20;88.30;;;;;;5030350;28;20047;-68
2024/02/14 00:44:23;;;;;;;3.00;1.30;;;10.20;88.20;;;;;;5033312;28;20030;-68
2024/02/14 00:46:50;;;;;;;1.02;0.70;;;10.20;88.90;;;;;;5029418;28;20060;-67
2024/02/14 00:49:16;;;;;;;1.23;0.90;;;10.20;88.50;;;;;;5031803;28;20473;-67
2024/02/14 00:51:42;;;;;;;1.00;0.90;;;10.20;88.50;;;;;;5030642;28;20040;-68
2024/02/14 00:54:08;;;;;;;0.70;0.70;;;10.30;88.40;;;;;;5027076;28;20037;-67
2024/02/14 00:56:34;;;;;;;1.05;0.93;;;10.30;88.20;;;;;;5029652;28;20071;-68
2024/02/14 00:59:00;;;;;;;4.05;1.90;;;10.30;88.20;;;;;;5036360;28;20033;-68
2024/02/14 01:01:26;;;;;;;1.73;1.20;;;10.40;88.50;;;;;;5030298;28;20112;-68
2024/02/14 01:03:52;;;;;;;1.10;1.00;;;10.30;88.60;;;;;;5029998;28;20022;-68
2024/02/14 01:06:19;;;;;;;2.58;1.52;;;10.30;88.60;;;;;;5031323;28;20037;-68
2024/02/14 01:08:45;;;;;;;1.23;1.13;;;10.30;89.00;;;;;;5030879;28;20021;-68
2024/02/14 01:11:12;;;;;;;1.27;1.17;;;10.30;89.10;;;;;;5028587;28;20037;-68
2024/02/14 01:13:38;;;;;;;1.67;1.33;;;10.40;89.00;;;;;;5028747;28;20029;-68
2024/02/14 01:16:04;;;;;;;2.08;1.23;;;10.40;89.00;;;;;;5011919;28;20025;-67
2024/02/14 01:18:31;;;;;;;2.88;1.40;;;10.40;88.90;;;;;;5029935;28;20028;-68
2024/02/14 01:20:58;;;;;;;1.55;1.17;;;10.40;89.00;;;;;;5037323;28;20037;-67
2024/02/14 01:23:26;;;;;;;1.98;1.00;;;10.40;89.10;;;;;;5038911;28;20045;-68
2024/02/14 01:25:54;;;;;;;1.10;1.00;;;10.50;89.10;;;;;;5030195;28;20099;-67
2024/02/14 01:28:20;;;;;;;1.30;1.13;;;10.50;89.00;;;;;;5028854;28;20076;-68
2024/02/14 01:30:46;;;;;;;1.63;1.50;;;10.50;89.00;;;;;;5029928;28;20041;-68
2024/02/14 01:33:12;;;;;;;4.13;1.73;;;10.50;89.00;;;;;;5028658;28;20028;-67
2024/02/14 01:35:37;;;;;;;1.15;1.00;;;10.50;89.10;;;;;;5032668;28;20131;-68
2024/02/14 01:38:04;;;;;;;1.75;0.98;;;10.60;89.10;;;;;;5029310;28;20045;-68
2024/02/14 01:40:30;;;;;;;1.55;1.00;;;10.60;89.20;;;;;;5029262;28;20026;-68
2024/02/14 01:42:56;;;;;;;1.58;1.35;;;10.70;89.10;;;;;;5028763;28;20026;-68
2024/02/14 01:45:22;;;;;;;2.35;1.73;;;10.70;88.90;;;;;;5070335;28;20082;-68
2024/02/14 01:47:50;;;;;;;3.25;1.58;;;10.70;88.90;;;;;;5039510;28;20110;-67
2024/02/14 01:50:18;;;;;;;1.70;1.25;;;10.70;89.10;;;;;;5035655;28;20060;-67
2024/02/14 01:52:45;;;;;;;2.03;1.58;;;10.70;89.10;;;;;;5029207;28;20140;-67
2024/02/14 01:55:13;;;;;;;1.05;0.98;;;10.70;89.50;;;;;;5029376;28;20033;-67
2024/02/14 01:57:39;;;;;;;2.03;1.40;;;10.70;89.40;;;;;;5029326;28;20030;-67
2024/02/14 02:00:09;;;;;;;3.33;1.15;;;10.70;89.40;;;;;;5031152;28;20481;-67
2024/02/14 02:02:39;;;;;;;2.58;1.42;;;10.70;89.50;;;;;;5026082;28;20037;-67
2024/02/14 02:05:06;;;;;;;1.90;1.52;;;10.70;89.50;;;;;;5028038;28;20030;-67
2024/02/14 02:07:33;;;;;;;3.15;1.67;;;10.70;89.40;;;;;;5028358;28;20040;-67
2024/02/14 02:09:59;;;;;;;2.33;1.75;;;10.80;89.70;;;;;;5029632;28;20048;-67
2024/02/14 02:12:27;;;;;;;2.42;1.42;;;10.70;89.80;;;;;;5036931;28;20033;-67
2024/02/14 02:14:53;;;;;;;2.67;1.80;;;10.80;89.90;;;;;;5029025;28;20441;-67
2024/02/14 02:17:18;;;;;;;3.53;1.15;;;10.80;89.90;;;;;;5027548;28;20037;-67
2024/02/14 02:19:44;;;;;;;3.22;1.90;;;10.80;89.80;;;;;;5029404;28;20029;-67
2024/02/14 02:22:10;;;;;;;1.83;1.33;;;10.80;90.00;;;;;;5028875;28;20082;-67
2024/02/14 02:24:36;;;;;;;4.28;1.30;;;10.80;90.00;;;;;;5028728;28;20033;-67
2024/02/14 02:27:03;;;;;;;2.20;1.55;;;10.80;90.00;;;;;;5027821;28;20030;-67
2024/02/14 02:29:28;;;;;;;2.45;1.60;;;10.90;90.00;;;;;;5027945;28;20041;-67
2024/02/14 02:31:54;;;;;;;3.35;1.55;;;10.90;90.00;;;;;;5029821;28;20025;-68
2024/02/14 02:34:20;;;;;;;1.88;1.42;;;10.90;90.10;;;;;;5024942;28;20108;-67
2024/02/14 02:36:49;;;;;;;2.00;1.10;;;10.90;90.00;;;;;;5029542;28;20144;-68
2024/02/14 02:39:15;;;;;;;4.55;1.70;;;10.90;90.10;;;;;;5063026;28;20437;-67
2024/02/14 02:41:41;;;;;;;2.72;1.27;;;10.90;90.20;;;;;;5032509;28;20045;-67
2024/02/14 02:44:07;;;;;;;4.65;2.22;;;10.90;90.30;;;;;;5029005;28;20060;-67
2024/02/14 02:46:33;;;;;;;1.42;1.15;;;10.90;90.30;;;;;;5028548;28;20065;-67
2024/02/14 02:48:59;;;;;;;2.45;1.75;;;10.90;90.20;;;;;;5028510;28;20052;-68
2024/02/14 02:51:25;;;;;;;1.75;1.60;;;10.90;90.20;;;;;;5027025;28;20112;-67
2024/02/14 02:53:54;;;;;;;1.98;1.60;;;10.90;90.20;;;;;;5030279;28;20308;-68
2024/02/14 02:56:21;;;;;;;7.80;1.95;;;11.00;90.30;;;;;;5028139;28;20083;-67
2024/02/14 02:58:48;;;;;;;3.50;1.67;;;10.90;90.30;;;;;;5028286;28;20035;-67
2024/02/14 03:01:14;;;;;;;3.47;1.77;;;10.90;90.40;;;;;;5026568;28;20080;-67
2024/02/14 03:03:41;;;;;;;2.25;1.52;;;10.90;90.40;;;;;;5032032;28;20069;-67
2024/02/14 03:06:07;;;;;;;2.35;1.65;;;10.90;90.50;;;;;;5034420;28;20028;-67
2024/02/14 03:08:34;;;;;;;2.70;1.50;;;10.90;90.50;;;;;;5027995;28;20046;-67
2024/02/14 03:11:06;;;;;;;1.85;1.23;;;10.90;90.60;;;;;;5009440;28;20021;-67
2024/02/14 03:13:32;;;;;;;;;;;10.90;90.60;;;;;;5028361;28;20470;-67
2024/02/14 03:15:58;;;;;;;2.60;1.30;;;10.90;90.70;;;;;;5032448;28;19913;-67
2024/02/14 03:18:25;;;;;;;2.20;1.50;;;10.90;90.70;;;;;;5020963;28;20065;-67
2024/02/14 03:20:53;;;;;;;1.77;1.67;;;10.90;90.60;;;;;;5030366;28;20025;-67
2024/02/14 03:23:19;;;;;;;1.58;1.23;;;11.00;90.60;;;;;;5030888;28;20025;-67
2024/02/14 03:25:45;;;;;;;2.90;1.63;;;11.00;90.50;;;;;;5028508;28;20329;-67
2024/02/14 03:28:13;;;;;;;1.98;1.58;;;11.00;90.50;;;;;;5032926;28;20045;-67
2024/02/14 03:30:39;;;;;;;2.92;1.77;;;11.00;90.50;;;;;;5025151;28;20132;-67
2024/02/14 03:33:07;;;;;;;1.98;1.23;;;11.00;90.60;;;;;;5026446;28;20073;-68
2024/02/14 03:35:33;;;;;;;1.52;1.08;;;11.00;90.60;;;;;;5029648;28;20532;-68
2024/02/14 03:38:01;;;;;;;2.40;1.27;;;11.10;90.60;;;;;;5030768;28;20120;-68
2024/02/14 03:40:29;;;;;;;3.40;1.45;;;11.10;90.60;;;;;;5029365;28;20053;-67
2024/02/14 03:42:56;;;;;;;2.25;1.50;;;11.10;90.70;;;;;;5029529;28;20026;-68
2024/02/14 03:45:22;;;;;;;3.88;1.77;;;11.10;90.70;;;;;;5034657;28;20032;-68
2024/02/14 03:47:48;;;;;;;4.07;1.90;;;11.10;90.80;;;;;;5033382;28;20033;-68
2024/02/14 03:50:15;;;;;;;2.55;1.80;;;11.10;90.90;;;;;;5033178;28;20033;-67
2024/02/14 03:52:42;;;;;;;4.15;1.75;;;11.10;90.90;;;;;;5035313;28;20057;-68
2024/02/14 03:55:13;;;;;;;1.25;1.15;;;11.10;91.00;;;;;;5030244;28;20502;-68
2024/02/14 03:57:39;;;;;;;4.63;1.67;;;11.10;90.90;;;;;;5036636;28;20527;-67
2024/02/14 04:00:10;;;;;;;2.63;1.90;;;11.20;90.90;;;;;;5031303;28;20385;-67
2024/02/14 04:02:36;;;;;;;3.58;2.20;;;11.20;91.00;;;;;;5023608;28;20034;-67
2024/02/14 04:05:06;;;;;;;3.65;2.22;;;11.20;91.00;;;;;;5026945;28;20030;-67
2024/02/14 04:07:34;;;;;;;2.78;1.63;;;11.20;91.00;;;;;;5023674;28;20426;-67
2024/02/14 04:10:00;;;;;;;2.38;1.75;;;11.20;90.90;;;;;;5020413;28;20362;-66
2024/02/14 04:12:25;;;;;;;4.22;2.58;;;11.30;90.90;;;;;;5030531;28;20465;-66
2024/02/14 04:14:51;;;;;;;3.80;2.35;;;11.20;90.90;;;;;;5037883;28;20080;-66
2024/02/14 04:17:17;;;;;;;3.28;2.08;;;11.20;91.00;;;;;;5039485;28;20029;-66
2024/02/14 04:19:43;;;;;;;2.88;2.33;;;11.20;91.10;;;;;;5039194;28;20102;-67
2024/02/14 04:22:09;;;;;;;6.93;2.28;;;11.20;91.00;;;;;;5053798;28;20366;-67
2024/02/14 04:24:35;;;;;;;4.65;2.33;;;11.30;91.00;;;;;;5030902;28;20036;-66
2024/02/14 04:27:02;;;;;;;2.95;2.08;;;11.30;91.00;;;;;;5030889;28;20032;-67
2024/02/14 04:29:30;;;;;;;4.30;2.65;;;11.30;91.00;;;;;;5030113;28;20374;-67
2024/02/14 04:32:05;;;;;;;4.18;2.50;;;11.40;91.00;;;;;;5028939;28;20584;-67
2024/02/14 04:34:31;;;;;;;6.18;2.38;;;11.40;91.00;;;;;;5031995;28;20713;-67
2024/02/14 04:36:57;;;;;;;7.13;3.08;;;11.30;91.00;;;;;;5032610;28;20505;-67
2024/02/14 04:39:23;;;;;;;6.43;2.25;;;11.40;91.00;;;;;;5035332;28;20022;-67
2024/02/14 04:41:50;;;;;;;4.28;3.20;;;11.40;91.00;;;;;;5028519;28;20480;-67
2024/02/14 04:44:16;;;;;;;4.35;2.30;;;11.40;91.10;;;;;;5037091;28;20021;-66
2024/02/14 04:46:43;;;;;;;5.32;2.40;;;11.40;91.10;;;;;;5033795;28;20056;-66
2024/02/14 04:49:09;;;;;;;3.13;2.20;;;11.40;91.10;;;;;;5034666;28;20468;-67
2024/02/14 04:51:35;;;;;;;3.67;2.47;;;11.40;91.10;;;;;;5040831;28;20037;-67
2024/02/14 04:54:01;;;;;;;3.40;2.17;;;11.40;91.00;;;;;;5035878;28;20033;-67
2024/02/14 04:56:27;;;;;;;3.65;2.55;;;11.50;91.00;;;;;;5033886;28;20026;-67
2024/02/14 04:58:56;;;;;;;3.30;2.35;;;11.40;91.00;;;;;;5026599;28;20035;-67
2024/02/14 05:01:22;;;;;;;5.05;2.50;;;11.50;91.00;;;;;;5032920;28;20100;-67
2024/02/14 05:03:49;;;;;;;4.70;2.30;;;11.50;91.00;;;;;;5029503;28;20120;-67
2024/02/14 05:06:15;;;;;;;6.43;3.38;;;11.50;91.00;;;;;;5030773;28;20017;-67
2024/02/14 05:08:41;;;;;;;3.88;2.42;;;11.50;91.10;;;;;;5029204;28;20049;-67
2024/02/14 05:11:07;;;;;;;3.70;2.15;;;11.50;91.00;;;;;;5032563;28;20030;-67
2024/02/14 05:13:33;;;;;;;6.32;3.08;;;11.50;91.00;;;;;;5030398;28;20042;-67
2024/02/14 05:16:03;;;;;;;5.05;2.63;;;11.50;91.00;;;;;;5031461;28;20025;-67
2024/02/14 05:18:29;;;;;;;5.43;2.80;;;11.50;91.10;;;;;;5028347;28;20485;-67
2024/02/14 05:20:55;;;;;;;5.63;2.90;;;11.50;91.10;;;;;;5029838;28;20533;-67
2024/02/14 05:23:21;;;;;;;3.85;2.75;;;11.50;91.20;;;;;;5031890;28;20116;-67
2024/02/14 05:25:48;;;;;;;4.03;2.78;;;11.50;91.20;;;;;;5029378;28;20500;-67
2024/02/14 05:28:14;;;;;;;4.80;3.00;;;11.50;91.20;;;;;;5033069;28;20168;-67
2024/02/14 05:30:43;;;;;;;3.25;2.58;;;11.50;91.30;;;;;;5029205;28;20038;-66
2024/02/14 05:33:09;;;;;;;5.22;2.60;;;11.50;91.20;;;;;;5029043;28;20041;-67
2024/02/14 05:35:34;;;;;;;3.95;2.97;;;11.50;91.20;;;;;;5030873;28;20029;-67
2024/02/14 05:38:00;;;;;;;3.92;2.78;;;11.60;91.20;;;;;;5032001;28;20058;-67
2024/02/14 05:40:26;;;;;;;5.20;2.53;;;11.60;91.30;;;;;;5026454;28;20116;-67
2024/02/14 05:42:52;;;;;;;4.22;2.90;;;11.50;91.30;;;;;;5030192;28;20208;-67
2024/02/14 05:45:18;;;;;;;3.33;2.15;;;11.60;91.30;;;;;;5025186;28;20064;-67
2024/02/14 05:47:44;;;;;;;5.18;3.00;;;11.60;91.30;;;;;;5033475;28;20038;-66
2024/02/14 05:50:11;;;;;;;5.93;3.33;;;11.60;91.20;;;;;;5017844;28;20029;-66
2024/02/14 05:52:37;;;;;;;6.32;2.90;;;11.60;91.30;;;;;;5032566;28;20037;-66
2024/02/14 05:55:04;;;;;;;4.32;2.88;;;11.60;91.30;;;;;;5028224;28;20030;-67
2024/02/14 05:57:30;;;;;;;3.72;2.53;;;11.60;91.30;;;;;;5026859;28;20021;-66
2024/02/14 05:59:56;;;;;;;4.90;3.00;;;11.60;91.30;;;;;;5030230;28;20524;-66
2024/02/14 06:02:22;;;;;;;5.88;3.30;;;11.70;91.30;;;;;;5028384;28;20540;-65
2024/02/14 06:04:47;;;;;;;4.97;2.40;;;11.70;91.20;;;;;;5029390;28;20674;-66
2024/02/14 06:07:13;;;;;;;5.55;2.67;;;11.70;91.20;;;;;;5029237;28;20035;-66
2024/02/14 06:09:38;;;;;;;6.95;2.70;;;11.70;91.20;;;;;;5028945;28;20118;-66
2024/02/14 06:12:05;;;;;;;6.78;2.75;;;11.70;91.20;;;;;;5032327;28;20420;-66
2024/02/14 06:14:33;;;;;;;5.38;2.60;;;11.70;91.20;;;;;;5063127;28;20056;-68
2024/02/14 06:16:59;;;;;;;3.80;2.47;;;11.70;91.20;;;;;;5039013;28;20131;-68
2024/02/14 06:19:25;;;;;;;4.00;2.35;;;11.70;91.20;;;;;;5031318;28;20056;-68
2024/02/14 06:21:51;;;;;;;4.40;1.88;;;11.70;91.10;;;;;;5027198;28;20033;-66
2024/02/14 06:24:18;;;;;;;3.53;2.13;;;11.70;91.20;;;;;;5028006;28;20049;-68
2024/02/14 06:26:44;;;;;;;3.90;2.70;;;11.70;91.20;;;;;;5030671;28;20096;-68
2024/02/14 06:29:10;;;;;;;4.25;2.40;;;11.70;91.20;;;;;;5027411;28;20069;-68
2024/02/14 06:31:36;;;;;;;5.00;2.97;;;11.70;91.30;;;;;;5026605;28;20775;-68
2024/02/14 06:34:01;;;;;;;4.15;2.10;;;11.70;91.20;;;;;;5030734;28;20245;-65
2024/02/14 06:36:27;;;;;;;2.97;1.85;;;11.70;91.20;;;;;;5030173;28;20128;-65
2024/02/14 06:38:53;;;;;;;3.35;2.20;;;11.70;91.20;;;;;;5037337;28;20021;-68
2024/02/14 06:41:20;;;;;;;6.75;2.92;;;11.70;91.20;;;;;;5034621;28;20083;-68
2024/02/14 06:43:46;;;;;;;7.30;2.60;;;11.70;91.20;;;;;;5034589;28;20496;-68
2024/02/14 06:46:12;;;;;;;3.72;2.20;;;11.70;91.30;;;;;;5028914;28;20013;-68
2024/02/14 06:48:37;;;;;;;3.22;2.30;;;11.70;91.30;;;;;;5028770;28;20041;-68
2024/02/14 06:51:03;;;;;;;3.72;1.90;;;11.70;91.40;;;;;;5027933;28;20366;-68
2024/02/14 06:53:30;;;;;;;3.50;2.33;;;11.70;91.40;;;;;;5030962;28;20083;-68
2024/02/14 06:55:56;;;;;;;6.57;2.25;;;11.70;91.40;;;;;;5030171;28;20036;-68
2024/02/14 06:58:21;;;;;;;3.22;2.10;;;11.70;91.50;;;;;;5029559;28;20034;-68
2024/02/14 07:00:47;;;;;;;5.32;2.70;;;11.70;91.60;;;;;;5030625;28;20064;-68
2024/02/14 07:03:13;;;;;;;5.70;2.42;;;11.70;91.70;;;;;;5028576;28;20033;-68
2024/02/14 07:05:39;;;;;;;3.10;2.53;;;11.70;91.70;;;;;;5027295;28;20029;-68
2024/02/14 07:08:05;;;;;;;4.32;2.50;;;11.60;91.70;;;;;;5027676;28;20029;-65
2024/02/14 07:10:32;;;;;;;3.47;2.22;;;11.70;92.10;;;;;;5028366;28;20029;-65
2024/02/14 07:12:57;;;;;;;4.95;2.10;;;11.70;91.80;;;;;;5012229;28;20053;-66
2024/02/14 07:15:28;;;;;;;4.20;2.38;;;11.70;91.80;;;;;;5019496;28;20615;-65
2024/02/14 07:17:57;;;;;;;3.00;1.85;;;11.70;91.70;;;;;;5015979;28;20333;-65
2024/02/14 07:20:25;;;;;;;4.13;2.22;;;11.80;91.70;;;;;;5009388;28;20029;-66
2024/02/14 07:22:53;;;;;;;3.35;2.42;;;11.80;91.70;;;;;;5013618;28;20037;-68
2024/02/14 07:25:19;;;;;;;6.55;2.90;;;11.80;91.60;;;;;;5017832;28;20033;-67
2024/02/14 07:27:46;;;;;;;3.53;2.60;;;11.80;91.70;;;;;;5018174;28;20389;-67
2024/02/14 07:30:12;;;;;;;5.57;2.95;;;11.80;91.70;;;;;;5026993;28;20037;-66
2024/02/14 07:32:38;;;;;;;3.08;2.20;;;11.80;91.70;;;;;;5024676;28;20037;-66
2024/02/14 07:35:05;;;;;;;6.38;3.10;;;11.80;91.70;;;;;;5030269;28;20032;-65
2024/02/14 07:37:30;;;;;;;5.97;2.40;;;11.80;91.70;;;;;;5032295;28;20033;-69
2024/02/14 07:39:56;;;;;;;3.17;2.30;;;11.90;91.70;;;;;;5023684;28;20040;-68
2024/02/14 07:42:22;;;;;;;6.32;2.67;;;11.90;91.60;;;;;;5016032;28;20034;-67
2024/02/14 07:44:47;;;;;;;3.95;2.53;;;11.90;91.60;;;;;;5031700;28;20030;-68
2024/02/14 07:47:13;;;;;;;5.00;3.22;;;12.00;91.60;;;;;;5030229;28;20102;-68
2024/02/14 07:49:39;;;;;;;3.60;2.30;;;12.00;91.50;;;;;;5030653;28;20025;-68
2024/02/14 07:52:05;;;;;;;3.75;2.38;;;11.90;91.50;;;;;;5029519;28;20112;-66
2024/02/14 07:54:31;;;;;;;5.07;2.65;;;12.00;91.50;;;;;;5029609;28;20045;-68
2024/02/14 07:56:57;;;;;;;5.30;2.90;;;12.00;91.50;;;;;;5027394;28;20053;-66
2024/02/14 07:59:22;;;;;;;6.18;2.47;;;12.00;91.60;;;;;;5028145;28;20566;-65
2024/02/14 08:01:48;;;;;;;5.25;3.00;;;12.00;91.50;;;;;;5029003;28;20033;-70
2024/02/14 08:04:15;;;;;;;5.05;2.47;;;12.10;91.50;;;;;;5028752;28;20033;-68
2024/02/14 08:06:41;;;;;;;7.88;3.28;;;12.00;91.50;;;;;;5029907;28;20030;-66
2024/02/14 08:09:09;;;;;;;4.80;3.08;;;12.00;91.50;;;;;;5031487;28;20364;-66
2024/02/14 08:11:35;;;;;;;5.55;2.90;;;12.00;91.60;;;;;;5021800;28;20038;-66
2024/02/14 08:14:01;;;;;;;4.47;2.58;;;12.00;91.60;;;;;;5028753;28;20104;-64
2024/02/14 08:16:27;;;;;;;4.25;2.78;;;12.10;91.60;;;;;;5024196;28;20441;-66
2024/02/14 08:18:58;;;;;;;4.38;2.83;;;12.10;91.60;;;;;;5029902;28;20784;-64
2024/02/14 08:21:25;;;;;;;4.10;2.45;;;12.10;91.60;;;;;;5031107;28;20017;-66
2024/02/14 08:23:52;;;;;;;4.68;2.83;;;12.10;91.50;;;;;;5036055;28;20087;-66
2024/02/14 08:26:18;;;;;;;4.75;2.92;;;12.10;91.50;;;;;;5033266;28;20485;-64
2024/02/14 08:28:43;;;;;;;4.75;3.20;;;12.10;91.50;;;;;;5030420;28;20036;-64
2024/02/14 08:31:12;;;;;;;6.10;2.38;;;12.20;91.50;;;;;;5027015;28;20528;-64
2024/02/14 08:33:38;;;;;;;4.03;2.70;;;12.20;91.50;;;;;;5029828;28;20121;-66
2024/02/14 08:36:04;;;;;;;3.55;2.50;;;12.20;91.50;;;;;;5031152;28;20120;-64
2024/02/14 08:38:30;;;;;;;5.30;2.85;;;12.20;91.50;;;;;;5033789;28;20033;-64
2024/02/14 08:40:56;;;;;;;6.88;3.20;;;12.20;91.50;;;;;;5035035;28;20090;-64
2024/02/14 08:43:25;;;;;;;4.25;2.65;;;12.20;91.50;;;;;;5030239;28;20106;-64
2024/02/14 08:45:51;;;;;;;4.97;2.50;;;12.20;91.50;;;;;;5028622;28;20032;-65
2024/02/14 08:48:17;;;;;;;3.47;2.03;;;12.20;91.50;;;;;;5026926;28;20029;-65
2024/02/14 08:50:43;;;;;;;5.13;3.03;;;12.20;91.50;;;;;;5034478;28;20053;-65
2024/02/14 08:53:09;;;;;;;3.53;2.25;;;12.20;91.50;;;;;;5025203;28;20064;-65
2024/02/14 08:55:36;;;;;;;2.80;1.90;;;12.20;91.50;;;;;;5023010;28;20030;-65
2024/02/14 08:58:02;;;;;;;6.38;2.72;;;12.20;91.50;;;;;;5027651;28;20052;-65
2024/02/14 09:00:27;;;;;;;4.22;2.63;;;12.20;91.50;;;;;;5027138;28;20025;-65
2024/02/14 09:02:53;;;;;;;4.70;2.70;;;12.20;91.70;;;;;;5025274;28;20066;-65
2024/02/14 09:05:19;;;;;;;5.50;2.90;;;12.20;91.70;;;;;;5027258;28;20474;-65
2024/02/14 09:07:45;;;;;;;4.72;2.85;;;12.20;91.60;;;;;;5029991;28;20029;-64
2024/02/14 09:10:12;;;;;;;4.03;2.20;;;12.20;91.70;;;;;;5035634;28;20034;-65
2024/02/14 09:12:38;;;;;;;2.78;2.05;;;12.20;91.80;;;;;;5022257;28;20034;-65
2024/02/14 09:15:06;;;;;;;4.15;2.28;;;12.20;91.80;;;;;;5025761;28;20037;-64
2024/02/14 09:17:31;;;;;;;2.53;1.90;;;12.30;91.70;;;;;;5028636;28;20072;-65
2024/02/14 09:19:57;;;;;;;2.85;2.17;;;12.30;91.70;;;;;;5030508;28;20747;-69
2024/02/14 09:22:23;;;;;;;2.45;1.90;;;12.30;91.60;;;;;;5038453;28;20033;-65
2024/02/14 09:24:50;;;;;;;2.95;2.33;;;12.40;91.60;;;;;;5027443;28;20421;-67
2024/02/14 09:27:16;;;;;;;2.85;1.92;;;12.40;91.60;;;;;;5017619;28;20033;-66
2024/02/14 09:29:42;;;;;;;4.38;2.40;;;12.50;91.60;;;;;;5019158;28;20504;-67
2024/02/14 09:32:07;;;;;;;2.50;1.65;;;12.40;91.50;;;;;;5021914;28;20081;-65
2024/02/14 09:34:34;;;;;;;3.83;2.03;;;12.40;91.50;;;;;;5029014;28;20477;-65
2024/02/14 09:37:00;;;;;;;2.13;1.65;;;12.40;91.60;;;;;;5036079;28;20033;-65
2024/02/14 09:39:25;;;;;;;4.07;2.53;;;12.40;91.60;;;;;;5011919;28;20487;-65
2024/02/14 09:42:02;;;;;;;2.78;1.92;;;12.30;91.70;;;;;;5027879;28;20028;-65
2024/02/14 09:44:32;;;;;;;3.90;1.95;;;12.40;91.70;;;;;;5020281;28;20028;-65
2024/02/14 09:46:59;;;;;;;2.40;1.90;;;12.40;91.70;;;;;;5041751;28;20032;-65
2024/02/14 09:49:25;;;;;;;3.45;1.95;;;12.40;91.70;;;;;;5028650;28;20159;-65
2024/02/14 09:51:53;;;;;;;3.55;2.08;;;12.40;91.70;;;;;;5032769;28;20029;-65
2024/02/14 09:54:19;;;;;;;3.38;2.20;;;12.40;91.70;;;;;;5030048;28;20025;-65
2024/02/14 09:56:53;;;;;;;5.72;2.55;;;12.40;91.70;;;;;;5029043;28;20203;-66
2024/02/14 09:59:23;;;;;;;3.28;2.25;;;12.40;91.70;;;;;;5027605;28;20488;-65
2024/02/14 10:01:51;;;;;;;3.17;2.25;;;12.50;91.70;;;;;;5028739;28;20034;-65
2024/02/14 10:04:18;;;;;;;2.97;1.98;;;12.50;91.70;;;;;;5030508;28;20052;-65
2024/02/14 10:06:45;;;;;;;3.20;1.95;;;12.60;91.70;;;;;;5034134;28;20053;-65
2024/02/14 10:09:10;;;;;;;6.97;2.45;;;12.60;91.60;;;;;;5036022;28;20028;-65
2024/02/14 10:11:37;;;;;;;4.65;2.58;;;12.60;91.50;;;;;;5031064;28;20520;-66
2024/02/14 10:14:08;;;;;;;6.32;2.72;;;12.60;91.60;;;;;;5030231;28;20029;-67
2024/02/14 10:16:35;;;;;;;5.35;1.98;;;12.50;91.60;;;;;;5027968;28;20036;-67
2024/02/14 10:19:01;;;;;;;2.42;1.80;;;12.60;91.70;;;;;;5034892;28;20055;-67
2024/02/14 10:21:28;;;;;;;3.45;2.22;;;12.60;91.60;;;;;;5030216;28;20460;-67
2024/02/14 10:23:57;;;;;;;3.58;2.60;;;12.70;91.50;;;;;;5033717;28;20033;-67
2024/02/14 10:26:23;;;;;;;11.02;3.80;;;12.70;91.50;;;;;;5033478;28;20037;-67
2024/02/14 10:28:51;;;;;;;2.33;1.67;;;12.70;91.50;;;;;;5027624;28;20091;-67
2024/02/14 10:31:17;;;;;;;3.20;2.03;;;12.70;91.60;;;;;;5027997;28;20048;-66
2024/02/14 10:33:43;;;;;;;4.00;2.42;;;12.70;91.60;;;;;;5012798;28;20038;-67
2024/02/14 10:36:11;;;;;;;2.83;1.95;;;12.70;91.50;;;;;;5028609;28;20041;-67
2024/02/14 10:38:39;;;;;;;3.67;2.42;;;12.80;91.50;;;;;;5027652;28;20557;-66
2024/02/14 10:41:05;;;;;;;3.30;2.30;;;12.80;91.40;;;;;;5020604;28;20018;-66
2024/02/14 10:43:31;;;;;;;3.22;1.92;;;12.80;91.40;;;;;;5030593;28;20112;-67
2024/02/14 10:46:00;;;;;;;5.70;3.28;;;12.80;91.40;;;;;;5025190;28;20365;-67
2024/02/14 10:48:33;;;;;;;5.43;2.50;;;12.90;91.40;;;;;;5031852;28;20061;-67
2024/02/14 10:51:02;;;;;;;4.88;2.92;;;12.90;91.40;;;;;;5030656;28;20060;-66
2024/02/14 10:53:33;;;;;;;4.10;2.10;;;12.80;91.40;;;;;;5030083;28;20036;-66
2024/02/14 10:56:00;;;;;;;4.77;2.60;;;12.90;91.40;;;;;;5016753;28;20025;-67
2024/02/14 10:58:29;;;;;;;3.40;2.03;;;12.90;91.40;;;;;;5017153;28;20349;-67
2024/02/14 11:00:56;;;;;;;4.50;2.33;;;12.90;91.40;;;;;;5028261;28;20346;-67
2024/02/14 11:03:22;;;;;;;1.95;1.45;;;13.00;91.40;;;;;;5024395;28;20056;-67
2024/02/14 11:05:49;;;;;;;2.75;2.05;;;13.00;91.30;;;;;;5031949;28;20029;-66
2024/02/14 11:08:25;;;;;;;5.53;2.65;;;13.00;91.20;;;;;;5028899;28;20033;-67
2024/02/14 11:10:56;;;;;;;3.72;2.45;;;13.10;91.20;;;;;;5016895;28;20033;-66
2024/02/14 11:13:25;;;;;;;6.07;2.60;;;13.00;91.30;;;;;;5017139;28;20466;-66
2024/02/14 11:15:54;;;;;;;4.13;2.58;;;13.00;91.40;;;;;;5022580;28;20022;-67
2024/02/14 11:18:30;;;;;;;6.35;2.60;;;13.00;91.40;;;;;;5017155;28;20447;-65
2024/02/14 11:20:59;;;;;;;2.35;1.92;;;13.00;91.40;;;;;;5030354;28;20025;-64
2024/02/14 11:23:26;;;;;;;9.52;2.20;;;13.10;91.40;;;;;;5060218;28;20037;-65
2024/02/14 11:26:04;;;;;;;2.55;1.88;;;13.10;91.30;;;;;;5044586;28;20162;-65
2024/02/14 11:28:30;;;;;;;4.93;2.53;;;13.10;91.40;;;;;;5032418;28;20082;-65
2024/02/14 11:31:03;;;;;;;5.03;2.33;;;13.10;91.40;;;;;;5014672;28;20061;-65
2024/02/14 11:33:29;;;;;;;3.22;1.90;;;13.10;91.40;;;;;;5013029;28;20450;-65
2024/02/14 11:35:56;;;;;;;4.43;2.30;;;13.10;91.40;;;;;;5032195;28;20275;-65
2024/02/14 11:38:25;;;;;;;3.80;2.30;;;13.10;91.40;;;;;;5023305;28;20038;-65
2024/02/14 11:40:54;;;;;;;5.50;2.85;;;13.10;91.40;;;;;;5031874;28;20029;-64
2024/02/14 11:43:20;;;;;;;5.93;2.70;;;13.20;91.40;;;;;;5018842;28;20504;-64
2024/02/14 11:45:49;;;;;;;3.50;2.20;;;13.20;91.40;;;;;;5030334;28;20025;-65
2024/02/14 11:48:16;;;;;;;5.47;2.88;;;13.10;91.40;;;;;;5029900;28;20522;-65
2024/02/14 11:50:43;;;;;;;3.78;2.47;;;13.20;91.50;;;;;;5028542;28;20915;-65
2024/02/14 11:53:17;;;;;;;6.80;2.13;;;13.20;91.40;;;;;;5059017;28;20022;-64
2024/02/14 11:55:43;;;;;;;4.00;1.90;;;13.20;91.40;;;;;;5032700;28;20044;-65
2024/02/14 11:58:10;;;;;;;3.45;2.33;;;13.20;91.40;;;;;;5016610;28;20034;-65
2024/02/14 12:00:40;;;;;;;4.88;2.65;;;13.20;91.50;;;;;;5027930;28;20033;-65
2024/02/14 12:03:18;;;;;;;3.88;2.20;;;13.20;91.50;;;;;;5022493;28;20079;-65
2024/02/14 12:05:47;;;;;;;4.05;2.55;;;13.20;91.50;;;;;;5026267;28;20030;-64
2024/02/14 12:08:13;;;;;;;3.88;2.67;;;13.20;91.50;;;;;;5032717;28;20021;-65
2024/02/14 12:10:39;;;;;;;2.83;2.08;;;13.20;91.50;;;;;;5017085;28;20076;-64
2024/02/14 12:13:07;;;;;;;3.63;2.33;;;13.20;91.50;;;;;;5028501;28;20397;-65
2024/02/14 12:15:38;;;;;;;3.03;1.63;;;13.20;91.50;;;;;;5014797;28;20037;-65
2024/02/14 12:18:04;;;;;;;2.33;1.92;;;13.20;91.50;;;;;;5043621;28;20485;-65
2024/02/14 12:20:30;;;;;;;4.85;2.38;;;13.20;91.50;;;;;;5022408;28;20382;-66
2024/02/14 12:22:55;;;;;;;2.40;1.98;;;13.30;91.50;;;;;;5018925;28;20042;-65
2024/02/14 12:25:21;;;;;;;5.20;2.15;;;13.30;91.50;;;;;;5030505;28;21012;-65
2024/02/14 12:27:51;;;;;;;4.43;2.10;;;13.40;91.50;;;;;;5019995;28;20111;-65
2024/02/14 12:30:19;;;;;;;2.85;2.03;;;13.40;91.40;;;;;;5022779;28;20380;-65
2024/02/14 12:32:44;;;;;;;2.55;1.60;;;13.40;91.40;;;;;;5026496;28;20116;-65
2024/02/14 12:35:10;;;;;;;3.22;2.10;;;13.40;91.40;;;;;;5029349;28;20171;-65
2024/02/14 12:37:36;;;;;;;1.92;1.45;;;13.40;91.30;;;;;;5028537;28;20532;-65
2024/02/14 12:40:02;;;;;;;3.22;2.15;;;13.40;91.30;;;;;;5017557;28;20033;-66
2024/02/14 12:42:28;;;;;;;3.20;1.48;;;13.50;91.40;;;;;;5019668;28;20036;-67
2024/02/14 12:44:56;;;;;;;3.08;2.10;;;13.50;91.30;;;;;;5021709;28;20030;-66